sensor_id;sensor_type;location;lat;lon;timestamp;temperature;humidity
22742;DHT22;11538;48.884;8.696;2023-12-22T00:02:20;8.80;99.90
22742;DHT22;11538;48.884;8.696;2023-12-22T00:04:47;8.80;99.90
22742;DHT22;11538;48.884;8.696;2023-12-22T00:07:14;8.90;99.90
22742;DHT22;11538;48.884;8.696;2023-12-22T00:09:41;8.80;99.90
22742;DHT22;11538;48.884;8.696;2023-12-22T00:12:08;8.90;99.90
22742;DHT22;11538;48.884;8.696;2023-12-22T00:14:35;8.90;99.90
22742;DHT22;11538;48.884;8.696;2023-12-22T00:17:04;8.90;99.90
22742;DHT22;11538;48.884;8.696;2023-12-22T00:19:30;8.90;99.90
22742;DHT22;11538;48.884;8.696;2023-12-22T00:21:58;8.80;99.90
22742;DHT22;11538;48.884;8.696;2023-12-22T00:24:25;8.90;99.90
22742;DHT22;11538;48.884;8.696;2023-12-22T00:26:52;8.90;99.90
22742;DHT22;11538;48.884;8.696;2023-12-22T00:29:19;8.90;99.90
22742;DHT22;11538;48.884;8.696;2023-12-22T00:31:47;8.90;99.90
22742;DHT22;11538;48.884;8.696;2023-12-22T00:34:14;8.90;99.90
22742;DHT22;11538;48.884;8.696;2023-12-22T00:36:41;8.90;99.90
22742;DHT22;11538;48.884;8.696;2023-12-22T00:39:08;8.90;99.90
22742;DHT22;11538;48.884;8.696;2023-12-22T00:41:35;8.90;99.90
22742;DHT22;11538;48.884;8.696;2023-12-22T00:44:02;8.90;99.90
22742;DHT22;11538;48.884;8.696;2023-12-22T00:46:29;8.90;99.90
22742;DHT22;11538;48.884;8.696;2023-12-22T00:48:56;8.90;99.90
22742;DHT22;11538;48.884;8.696;2023-12-22T00:51:23;8.90;99.90
22742;DHT22;11538;48.884;8.696;2023-12-22T00:53:50;8.90;99.90
22742;DHT22;11538;48.884;8.696;2023-12-22T00:56:16;8.90;99.90
22742;DHT22;11538;48.884;8.696;2023-12-22T00:58:43;8.90;99.90
22742;DHT22;11538;48.884;8.696;2023-12-22T01:01:20;8.90;99.90
22742;DHT22;11538;48.884;8.696;2023-12-22T01:03:47;8.90;99.90
22742;DHT22;11538;48.884;8.696;2023-12-22T01:06:14;8.90;99.90
22742;DHT22;11538;48.884;8.696;2023-12-22T01:08:41;8.90;99.90
22742;DHT22;11538;48.884;8.696;2023-12-22T01:11:08;8.90;99.90
22742;DHT22;11538;48.884;8.696;2023-12-22T01:13:35;8.90;99.90
22742;DHT22;11538;48.884;8.696;2023-12-22T01:16:02;8.80;99.90
22742;DHT22;11538;48.884;8.696;2023-12-22T01:18:29;8.90;99.90
22742;DHT22;11538;48.884;8.696;2023-12-22T01:20:56;8.80;99.90
22742;DHT22;11538;48.884;8.696;2023-12-22T01:23:23;8.90;99.90
22742;DHT22;11538;48.884;8.696;2023-12-22T01:25:51;8.80;99.90
22742;DHT22;11538;48.884;8.696;2023-12-22T01:28:19;8.80;99.90
22742;DHT22;11538;48.884;8.696;2023-12-22T01:30:45;8.80;99.90
22742;DHT22;11538;48.884;8.696;2023-12-22T01:33:12;8.80;99.90
22742;DHT22;11538;48.884;8.696;2023-12-22T01:35:39;8.80;99.90
22742;DHT22;11538;48.884;8.696;2023-12-22T01:38:06;8.80;99.90
22742;DHT22;11538;48.884;8.696;2023-12-22T01:40:33;8.80;99.90
22742;DHT22;11538;48.884;8.696;2023-12-22T01:43:01;8.80;99.90
22742;DHT22;11538;48.884;8.696;2023-12-22T01:45:28;8.80;99.90
22742;DHT22;11538;48.884;8.696;2023-12-22T01:47:55;8.80;99.90
22742;DHT22;11538;48.884;8.696;2023-12-22T01:50:22;8.70;99.90
22742;DHT22;11538;48.884;8.696;2023-12-22T01:52:50;8.70;99.90
22742;DHT22;11538;48.884;8.696;2023-12-22T01:55:17;8.70;99.90
22742;DHT22;11538;48.884;8.696;2023-12-22T01:57:46;8.70;99.90
22742;DHT22;11538;48.884;8.696;2023-12-22T02:00:16;8.60;99.90
22742;DHT22;11538;48.884;8.696;2023-12-22T02:02:43;8.60;99.90
22742;DHT22;11538;48.884;8.696;2023-12-22T02:05:11;8.60;99.90
22742;DHT22;11538;48.884;8.696;2023-12-22T02:07:41;8.60;99.90
22742;DHT22;11538;48.884;8.696;2023-12-22T02:10:09;8.50;99.90
22742;DHT22;11538;48.884;8.696;2023-12-22T02:12:37;8.50;99.90
22742;DHT22;11538;48.884;8.696;2023-12-22T02:15:04;8.50;99.90
22742;DHT22;11538;48.884;8.696;2023-12-22T02:17:51;8.50;99.90
22742;DHT22;11538;48.884;8.696;2023-12-22T02:20:25;8.50;99.90
22742;DHT22;11538;48.884;8.696;2023-12-22T02:22:53;8.50;99.90
22742;DHT22;11538;48.884;8.696;2023-12-22T02:25:20;8.50;99.90
22742;DHT22;11538;48.884;8.696;2023-12-22T02:27:57;8.50;99.90
22742;DHT22;11538;48.884;8.696;2023-12-22T02:30:32;8.40;99.90
22742;DHT22;11538;48.884;8.696;2023-12-22T02:33:01;8.40;99.90
22742;DHT22;11538;48.884;8.696;2023-12-22T02:35:35;8.50;99.90
22742;DHT22;11538;48.884;8.696;2023-12-22T02:38:04;8.50;99.90
22742;DHT22;11538;48.884;8.696;2023-12-22T02:40:34;8.50;99.90
22742;DHT22;11538;48.884;8.696;2023-12-22T02:43:02;8.50;99.90
22742;DHT22;11538;48.884;8.696;2023-12-22T02:45:31;8.50;99.90
22742;DHT22;11538;48.884;8.696;2023-12-22T02:47:59;8.50;99.90
22742;DHT22;11538;48.884;8.696;2023-12-22T02:50:26;8.50;99.90
22742;DHT22;11538;48.884;8.696;2023-12-22T02:52:53;8.50;99.90
22742;DHT22;11538;48.884;8.696;2023-12-22T02:55:19;8.50;99.90
22742;DHT22;11538;48.884;8.696;2023-12-22T02:57:46;8.50;99.90
22742;DHT22;11538;48.884;8.696;2023-12-22T03:00:14;8.50;99.90
22742;DHT22;11538;48.884;8.696;2023-12-22T03:02:41;8.50;99.90
22742;DHT22;11538;48.884;8.696;2023-12-22T03:05:08;8.50;99.90
22742;DHT22;11538;48.884;8.696;2023-12-22T03:07:35;8.50;99.90
22742;DHT22;11538;48.884;8.696;2023-12-22T03:10:03;8.50;99.90
22742;DHT22;11538;48.884;8.696;2023-12-22T03:12:30;8.50;99.90
22742;DHT22;11538;48.884;8.696;2023-12-22T03:14:57;8.50;99.90
22742;DHT22;11538;48.884;8.696;2023-12-22T03:17:24;8.50;99.90
22742;DHT22;11538;48.884;8.696;2023-12-22T03:19:51;8.50;99.90
22742;DHT22;11538;48.884;8.696;2023-12-22T03:22:17;8.50;99.90
22742;DHT22;11538;48.884;8.696;2023-12-22T03:24:44;8.50;99.90
22742;DHT22;11538;48.884;8.696;2023-12-22T03:27:11;8.50;99.90
22742;DHT22;11538;48.884;8.696;2023-12-22T03:29:43;8.50;99.90
22742;DHT22;11538;48.884;8.696;2023-12-22T03:32:14;8.50;99.90
22742;DHT22;11538;48.884;8.696;2023-12-22T03:34:41;8.50;99.90
22742;DHT22;11538;48.884;8.696;2023-12-22T03:37:08;8.50;99.90
22742;DHT22;11538;48.884;8.696;2023-12-22T03:39:35;8.50;99.90
22742;DHT22;11538;48.884;8.696;2023-12-22T03:42:02;8.50;99.90
22742;DHT22;11538;48.884;8.696;2023-12-22T03:44:28;8.50;99.90
22742;DHT22;11538;48.884;8.696;2023-12-22T03:46:55;8.50;99.90
22742;DHT22;11538;48.884;8.696;2023-12-22T03:49:23;8.50;99.90
22742;DHT22;11538;48.884;8.696;2023-12-22T03:51:49;8.40;99.90
22742;DHT22;11538;48.884;8.696;2023-12-22T03:54:17;8.50;99.90
22742;DHT22;11538;48.884;8.696;2023-12-22T03:56:44;8.40;99.90
22742;DHT22;11538;48.884;8.696;2023-12-22T03:59:11;8.40;99.90
22742;DHT22;11538;48.884;8.696;2023-12-22T04:01:39;8.40;99.90
22742;DHT22;11538;48.884;8.696;2023-12-22T04:04:06;8.40;99.90
22742;DHT22;11538;48.884;8.696;2023-12-22T04:06:38;8.40;99.90
22742;DHT22;11538;48.884;8.696;2023-12-22T04:09:06;8.40;99.90
22742;DHT22;11538;48.884;8.696;2023-12-22T04:11:32;8.30;99.90
22742;DHT22;11538;48.884;8.696;2023-12-22T04:14:05;8.20;99.90
22742;DHT22;11538;48.884;8.696;2023-12-22T04:16:32;8.20;99.90
22742;DHT22;11538;48.884;8.696;2023-12-22T04:19:00;8.20;99.90
22742;DHT22;11538;48.884;8.696;2023-12-22T04:21:27;8.10;99.90
22742;DHT22;11538;48.884;8.696;2023-12-22T04:23:54;8.10;99.90
22742;DHT22;11538;48.884;8.696;2023-12-22T04:26:20;8.10;99.90
22742;DHT22;11538;48.884;8.696;2023-12-22T04:28:47;8.10;99.90
22742;DHT22;11538;48.884;8.696;2023-12-22T04:31:14;8.10;99.90
22742;DHT22;11538;48.884;8.696;2023-12-22T04:33:41;8.10;99.90
22742;DHT22;11538;48.884;8.696;2023-12-22T04:36:08;8.10;99.90
22742;DHT22;11538;48.884;8.696;2023-12-22T04:38:35;8.10;99.90
22742;DHT22;11538;48.884;8.696;2023-12-22T04:41:02;8.10;99.90
22742;DHT22;11538;48.884;8.696;2023-12-22T04:43:29;8.10;99.90
22742;DHT22;11538;48.884;8.696;2023-12-22T04:45:56;8.10;99.90
22742;DHT22;11538;48.884;8.696;2023-12-22T04:48:25;8.10;99.90
22742;DHT22;11538;48.884;8.696;2023-12-22T04:50:52;8.10;99.90
22742;DHT22;11538;48.884;8.696;2023-12-22T04:53:19;8.10;99.90
22742;DHT22;11538;48.884;8.696;2023-12-22T04:55:47;8.10;99.90
22742;DHT22;11538;48.884;8.696;2023-12-22T04:58:14;8.10;99.90
22742;DHT22;11538;48.884;8.696;2023-12-22T05:00:41;8.10;99.90
22742;DHT22;11538;48.884;8.696;2023-12-22T05:03:07;8.20;99.90
22742;DHT22;11538;48.884;8.696;2023-12-22T05:05:34;8.20;99.90
22742;DHT22;11538;48.884;8.696;2023-12-22T05:08:01;8.20;99.90
22742;DHT22;11538;48.884;8.696;2023-12-22T05:10:29;8.20;99.90
22742;DHT22;11538;48.884;8.696;2023-12-22T05:12:56;8.20;99.90
22742;DHT22;11538;48.884;8.696;2023-12-22T05:15:23;8.20;99.90
22742;DHT22;11538;48.884;8.696;2023-12-22T05:17:49;8.20;99.90
22742;DHT22;11538;48.884;8.696;2023-12-22T05:20:17;8.20;99.90
22742;DHT22;11538;48.884;8.696;2023-12-22T05:22:44;8.20;99.90
22742;DHT22;11538;48.884;8.696;2023-12-22T05:25:13;8.20;99.90
22742;DHT22;11538;48.884;8.696;2023-12-22T05:27:40;8.30;99.90
22742;DHT22;11538;48.884;8.696;2023-12-22T05:30:10;8.30;99.90
22742;DHT22;11538;48.884;8.696;2023-12-22T05:32:37;8.30;99.90
22742;DHT22;11538;48.884;8.696;2023-12-22T05:35:05;8.30;99.90
22742;DHT22;11538;48.884;8.696;2023-12-22T05:37:33;8.30;99.90
22742;DHT22;11538;48.884;8.696;2023-12-22T05:40:00;8.30;99.90
22742;DHT22;11538;48.884;8.696;2023-12-22T05:42:27;8.30;99.90
22742;DHT22;11538;48.884;8.696;2023-12-22T05:44:54;8.40;99.90
22742;DHT22;11538;48.884;8.696;2023-12-22T05:47:21;8.40;99.90
22742;DHT22;11538;48.884;8.696;2023-12-22T05:49:48;8.50;99.90
22742;DHT22;11538;48.884;8.696;2023-12-22T05:52:15;8.40;99.90
22742;DHT22;11538;48.884;8.696;2023-12-22T05:54:42;8.50;99.90
22742;DHT22;11538;48.884;8.696;2023-12-22T05:57:09;8.50;99.90
22742;DHT22;11538;48.884;8.696;2023-12-22T05:59:36;8.50;99.90
22742;DHT22;11538;48.884;8.696;2023-12-22T06:02:03;8.50;99.90
22742;DHT22;11538;48.884;8.696;2023-12-22T06:04:30;8.60;99.90
22742;DHT22;11538;48.884;8.696;2023-12-22T06:06:57;8.60;99.90
22742;DHT22;11538;48.884;8.696;2023-12-22T06:09:24;8.60;99.90
22742;DHT22;11538;48.884;8.696;2023-12-22T06:11:53;8.60;99.90
22742;DHT22;11538;48.884;8.696;2023-12-22T06:14:20;8.60;99.90
22742;DHT22;11538;48.884;8.696;2023-12-22T06:16:47;8.60;99.90
22742;DHT22;11538;48.884;8.696;2023-12-22T06:19:14;8.60;99.90
22742;DHT22;11538;48.884;8.696;2023-12-22T06:21:41;8.60;99.90
22742;DHT22;11538;48.884;8.696;2023-12-22T06:24:08;8.60;99.90
22742;DHT22;11538;48.884;8.696;2023-12-22T06:26:36;8.60;99.90
22742;DHT22;11538;48.884;8.696;2023-12-22T06:29:03;8.60;99.90
22742;DHT22;11538;48.884;8.696;2023-12-22T06:31:30;8.60;99.90
22742;DHT22;11538;48.884;8.696;2023-12-22T06:33:57;8.60;99.90
22742;DHT22;11538;48.884;8.696;2023-12-22T06:36:29;8.70;99.90
22742;DHT22;11538;48.884;8.696;2023-12-22T06:38:56;8.70;99.90
22742;DHT22;11538;48.884;8.696;2023-12-22T06:41:28;8.70;99.90
22742;DHT22;11538;48.884;8.696;2023-12-22T06:43:57;8.70;99.90
22742;DHT22;11538;48.884;8.696;2023-12-22T06:46:28;8.60;99.90
22742;DHT22;11538;48.884;8.696;2023-12-22T06:48:57;8.60;99.90
22742;DHT22;11538;48.884;8.696;2023-12-22T06:51:27;8.60;99.90
22742;DHT22;11538;48.884;8.696;2023-12-22T06:53:57;8.60;99.90
22742;DHT22;11538;48.884;8.696;2023-12-22T06:56:30;8.50;99.90
22742;DHT22;11538;48.884;8.696;2023-12-22T06:59:00;8.50;99.90
22742;DHT22;11538;48.884;8.696;2023-12-22T07:01:35;8.50;99.90
22742;DHT22;11538;48.884;8.696;2023-12-22T07:04:04;8.50;99.90
22742;DHT22;11538;48.884;8.696;2023-12-22T07:06:33;8.50;99.90
22742;DHT22;11538;48.884;8.696;2023-12-22T07:14:17;8.40;99.90
22742;DHT22;11538;48.884;8.696;2023-12-22T07:16:45;8.40;99.90
22742;DHT22;11538;48.884;8.696;2023-12-22T07:19:12;8.40;99.90
22742;DHT22;11538;48.884;8.696;2023-12-22T07:21:40;8.40;99.90
22742;DHT22;11538;48.884;8.696;2023-12-22T07:24:10;8.40;99.90
22742;DHT22;11538;48.884;8.696;2023-12-22T07:26:37;8.30;99.90
22742;DHT22;11538;48.884;8.696;2023-12-22T07:29:04;8.30;99.90
22742;DHT22;11538;48.884;8.696;2023-12-22T07:31:31;8.30;99.90
22742;DHT22;11538;48.884;8.696;2023-12-22T07:33:59;8.30;99.90
22742;DHT22;11538;48.884;8.696;2023-12-22T07:36:25;8.30;99.90
22742;DHT22;11538;48.884;8.696;2023-12-22T07:38:52;8.30;99.90
22742;DHT22;11538;48.884;8.696;2023-12-22T07:41:21;8.30;99.90
22742;DHT22;11538;48.884;8.696;2023-12-22T07:43:48;8.30;99.90
22742;DHT22;11538;48.884;8.696;2023-12-22T07:46:20;8.30;99.90
22742;DHT22;11538;48.884;8.696;2023-12-22T07:48:49;8.20;99.90
22742;DHT22;11538;48.884;8.696;2023-12-22T07:51:18;8.20;99.90
22742;DHT22;11538;48.884;8.696;2023-12-22T07:53:45;8.20;99.90
22742;DHT22;11538;48.884;8.696;2023-12-22T07:56:12;8.20;99.90
22742;DHT22;11538;48.884;8.696;2023-12-22T07:58:39;8.20;99.90
22742;DHT22;11538;48.884;8.696;2023-12-22T08:01:06;8.10;99.90
22742;DHT22;11538;48.884;8.696;2023-12-22T08:03:33;8.10;99.90
22742;DHT22;11538;48.884;8.696;2023-12-22T08:06:01;8.10;99.90
22742;DHT22;11538;48.884;8.696;2023-12-22T08:08:28;8.10;99.90
22742;DHT22;11538;48.884;8.696;2023-12-22T08:10:55;8.10;99.90
22742;DHT22;11538;48.884;8.696;2023-12-22T08:13:22;8.10;99.90
22742;DHT22;11538;48.884;8.696;2023-12-22T08:15:49;8.10;99.90
22742;DHT22;11538;48.884;8.696;2023-12-22T08:18:17;8.10;99.90
22742;DHT22;11538;48.884;8.696;2023-12-22T08:20:44;8.10;99.90
22742;DHT22;11538;48.884;8.696;2023-12-22T08:23:14;8.20;99.90
22742;DHT22;11538;48.884;8.696;2023-12-22T08:25:42;8.20;99.90
22742;DHT22;11538;48.884;8.696;2023-12-22T08:28:11;8.20;99.90
22742;DHT22;11538;48.884;8.696;2023-12-22T08:30:39;8.20;99.90
22742;DHT22;11538;48.884;8.696;2023-12-22T08:33:06;8.30;99.90
22742;DHT22;11538;48.884;8.696;2023-12-22T08:35:34;8.30;99.90
22742;DHT22;11538;48.884;8.696;2023-12-22T08:38:01;8.30;99.90
22742;DHT22;11538;48.884;8.696;2023-12-22T08:40:29;8.30;99.90
22742;DHT22;11538;48.884;8.696;2023-12-22T08:42:56;8.40;99.90
22742;DHT22;11538;48.884;8.696;2023-12-22T08:45:27;8.40;99.90
22742;DHT22;11538;48.884;8.696;2023-12-22T08:47:56;8.40;99.90
22742;DHT22;11538;48.884;8.696;2023-12-22T08:50:23;8.40;99.90
22742;DHT22;11538;48.884;8.696;2023-12-22T08:52:51;8.50;99.90
22742;DHT22;11538;48.884;8.696;2023-12-22T08:55:18;8.50;99.90
22742;DHT22;11538;48.884;8.696;2023-12-22T08:57:45;8.50;99.90
22742;DHT22;11538;48.884;8.696;2023-12-22T09:00:22;8.50;99.90
22742;DHT22;11538;48.884;8.696;2023-12-22T09:02:49;8.60;99.90
22742;DHT22;11538;48.884;8.696;2023-12-22T09:05:16;8.60;99.90
22742;DHT22;11538;48.884;8.696;2023-12-22T09:07:45;8.60;99.90
22742;DHT22;11538;48.884;8.696;2023-12-22T09:10:13;8.60;99.90
22742;DHT22;11538;48.884;8.696;2023-12-22T09:12:40;8.60;99.90
22742;DHT22;11538;48.884;8.696;2023-12-22T09:15:07;8.70;99.90
22742;DHT22;11538;48.884;8.696;2023-12-22T09:17:34;8.70;99.90
22742;DHT22;11538;48.884;8.696;2023-12-22T09:20:01;8.70;99.90
22742;DHT22;11538;48.884;8.696;2023-12-22T09:22:29;8.70;99.90
22742;DHT22;11538;48.884;8.696;2023-12-22T09:24:56;8.80;99.90
22742;DHT22;11538;48.884;8.696;2023-12-22T09:27:23;8.80;99.90
22742;DHT22;11538;48.884;8.696;2023-12-22T09:29:50;8.80;99.90
22742;DHT22;11538;48.884;8.696;2023-12-22T09:32:17;8.80;99.90
22742;DHT22;11538;48.884;8.696;2023-12-22T09:34:44;8.80;99.90
22742;DHT22;11538;48.884;8.696;2023-12-22T09:37:11;8.80;99.90
22742;DHT22;11538;48.884;8.696;2023-12-22T09:39:37;8.80;99.90
22742;DHT22;11538;48.884;8.696;2023-12-22T09:42:05;8.80;99.90
22742;DHT22;11538;48.884;8.696;2023-12-22T09:44:32;8.80;99.90
22742;DHT22;11538;48.884;8.696;2023-12-22T09:47:04;8.90;99.90
22742;DHT22;11538;48.884;8.696;2023-12-22T09:49:33;8.90;99.90
22742;DHT22;11538;48.884;8.696;2023-12-22T09:52:06;8.90;99.90
22742;DHT22;11538;48.884;8.696;2023-12-22T09:54:33;8.90;99.90
22742;DHT22;11538;48.884;8.696;2023-12-22T09:57:03;8.90;99.90
22742;DHT22;11538;48.884;8.696;2023-12-22T09:59:49;8.90;99.90
22742;DHT22;11538;48.884;8.696;2023-12-22T10:02:19;8.90;99.90
22742;DHT22;11538;48.884;8.696;2023-12-22T10:04:46;8.90;99.90
22742;DHT22;11538;48.884;8.696;2023-12-22T10:07:15;9.00;99.90
22742;DHT22;11538;48.884;8.696;2023-12-22T10:09:44;9.00;99.90
22742;DHT22;11538;48.884;8.696;2023-12-22T10:12:14;9.00;99.90
22742;DHT22;11538;48.884;8.696;2023-12-22T10:14:42;9.00;99.90
22742;DHT22;11538;48.884;8.696;2023-12-22T10:17:09;9.00;99.90
22742;DHT22;11538;48.884;8.696;2023-12-22T10:19:38;9.00;99.90
22742;DHT22;11538;48.884;8.696;2023-12-22T10:22:06;9.00;99.90
22742;DHT22;11538;48.884;8.696;2023-12-22T10:24:43;9.00;99.90
22742;DHT22;11538;48.884;8.696;2023-12-22T10:27:15;9.00;99.90
22742;DHT22;11538;48.884;8.696;2023-12-22T10:29:58;9.00;99.90
22742;DHT22;11538;48.884;8.696;2023-12-22T10:32:28;9.00;99.90
22742;DHT22;11538;48.884;8.696;2023-12-22T10:34:56;9.00;99.90
22742;DHT22;11538;48.884;8.696;2023-12-22T10:37:26;9.00;99.90
22742;DHT22;11538;48.884;8.696;2023-12-22T10:39:54;9.00;99.90
22742;DHT22;11538;48.884;8.696;2023-12-22T10:42:21;9.00;99.90
22742;DHT22;11538;48.884;8.696;2023-12-22T10:44:48;8.90;99.90
22742;DHT22;11538;48.884;8.696;2023-12-22T10:47:18;8.90;99.90
22742;DHT22;11538;48.884;8.696;2023-12-22T10:49:48;8.90;99.90
22742;DHT22;11538;48.884;8.696;2023-12-22T10:52:17;8.90;99.90
22742;DHT22;11538;48.884;8.696;2023-12-22T10:54:45;8.90;99.90
22742;DHT22;11538;48.884;8.696;2023-12-22T10:57:12;8.80;99.90
22742;DHT22;11538;48.884;8.696;2023-12-22T10:59:46;8.80;99.90
22742;DHT22;11538;48.884;8.696;2023-12-22T11:02:27;8.80;99.90
22742;DHT22;11538;48.884;8.696;2023-12-22T11:05:03;8.80;99.90
22742;DHT22;11538;48.884;8.696;2023-12-22T11:07:36;8.70;99.90
22742;DHT22;11538;48.884;8.696;2023-12-22T11:10:06;8.70;99.90
22742;DHT22;11538;48.884;8.696;2023-12-22T11:12:38;8.70;99.90
22742;DHT22;11538;48.884;8.696;2023-12-22T11:15:06;8.60;99.90
22742;DHT22;11538;48.884;8.696;2023-12-22T11:17:35;8.60;99.90
22742;DHT22;11538;48.884;8.696;2023-12-22T11:20:12;8.60;99.90
22742;DHT22;11538;48.884;8.696;2023-12-22T11:22:42;8.60;99.90
22742;DHT22;11538;48.884;8.696;2023-12-22T11:25:10;8.60;99.90
22742;DHT22;11538;48.884;8.696;2023-12-22T11:27:43;8.60;99.90
22742;DHT22;11538;48.884;8.696;2023-12-22T11:30:12;8.50;99.90
22742;DHT22;11538;48.884;8.696;2023-12-22T11:32:41;8.50;99.90
22742;DHT22;11538;48.884;8.696;2023-12-22T11:35:11;8.50;99.90
22742;DHT22;11538;48.884;8.696;2023-12-22T11:37:42;8.50;99.90
22742;DHT22;11538;48.884;8.696;2023-12-22T11:40:09;8.50;99.90
22742;DHT22;11538;48.884;8.696;2023-12-22T11:42:40;8.50;99.90
22742;DHT22;11538;48.884;8.696;2023-12-22T11:45:14;8.50;99.90
22742;DHT22;11538;48.884;8.696;2023-12-22T11:47:43;8.40;99.90
22742;DHT22;11538;48.884;8.696;2023-12-22T11:50:11;8.40;99.90
22742;DHT22;11538;48.884;8.696;2023-12-22T11:52:39;8.40;99.90
22742;DHT22;11538;48.884;8.696;2023-12-22T11:55:07;8.40;99.90
22742;DHT22;11538;48.884;8.696;2023-12-22T11:57:36;8.40;99.90
22742;DHT22;11538;48.884;8.696;2023-12-22T12:00:37;8.40;99.90
22742;DHT22;11538;48.884;8.696;2023-12-22T12:02:58;8.40;99.90
22742;DHT22;11538;48.884;8.696;2023-12-22T12:05:25;8.40;99.90
22742;DHT22;11538;48.884;8.696;2023-12-22T12:07:52;8.40;99.90
22742;DHT22;11538;48.884;8.696;2023-12-22T12:13:09;8.40;99.90
22742;DHT22;11538;48.884;8.696;2023-12-22T12:15:37;8.40;99.90
22742;DHT22;11538;48.884;8.696;2023-12-22T12:18:05;8.40;99.90
22742;DHT22;11538;48.884;8.696;2023-12-22T12:20:32;8.40;99.90
22742;DHT22;11538;48.884;8.696;2023-12-22T12:23:03;8.40;99.90
22742;DHT22;11538;48.884;8.696;2023-12-22T12:25:32;8.40;99.90
22742;DHT22;11538;48.884;8.696;2023-12-22T12:28:10;8.50;99.90
22742;DHT22;11538;48.884;8.696;2023-12-22T12:30:38;8.50;99.90
22742;DHT22;11538;48.884;8.696;2023-12-22T12:33:10;8.50;99.90
22742;DHT22;11538;48.884;8.696;2023-12-22T12:35:39;8.60;99.90
22742;DHT22;11538;48.884;8.696;2023-12-22T12:38:12;8.60;99.90
22742;DHT22;11538;48.884;8.696;2023-12-22T12:40:45;8.70;99.90
22742;DHT22;11538;48.884;8.696;2023-12-22T12:43:17;8.70;99.90
22742;DHT22;11538;48.884;8.696;2023-12-22T12:45:45;8.70;99.90
22742;DHT22;11538;48.884;8.696;2023-12-22T12:48:16;8.80;99.90
22742;DHT22;11538;48.884;8.696;2023-12-22T12:50:45;8.80;99.90
22742;DHT22;11538;48.884;8.696;2023-12-22T12:53:12;8.80;99.90
22742;DHT22;11538;48.884;8.696;2023-12-22T12:55:39;8.80;99.90
22742;DHT22;11538;48.884;8.696;2023-12-22T12:58:06;8.80;99.90
22742;DHT22;11538;48.884;8.696;2023-12-22T13:00:34;8.90;99.90
22742;DHT22;11538;48.884;8.696;2023-12-22T13:03:08;8.90;99.90
22742;DHT22;11538;48.884;8.696;2023-12-22T13:05:35;9.00;99.90
22742;DHT22;11538;48.884;8.696;2023-12-22T13:08:10;9.00;99.90
22742;DHT22;11538;48.884;8.696;2023-12-22T13:10:39;9.00;99.90
22742;DHT22;11538;48.884;8.696;2023-12-22T13:13:08;9.00;99.90
22742;DHT22;11538;48.884;8.696;2023-12-22T13:15:36;9.10;99.90
22742;DHT22;11538;48.884;8.696;2023-12-22T13:18:07;9.10;99.90
22742;DHT22;11538;48.884;8.696;2023-12-22T13:20:34;9.10;99.90
22742;DHT22;11538;48.884;8.696;2023-12-22T13:23:02;9.10;99.90
22742;DHT22;11538;48.884;8.696;2023-12-22T13:25:40;9.10;99.90
22742;DHT22;11538;48.884;8.696;2023-12-22T13:28:07;9.10;99.90
22742;DHT22;11538;48.884;8.696;2023-12-22T13:30:38;9.10;99.90
22742;DHT22;11538;48.884;8.696;2023-12-22T13:33:11;9.20;99.90
22742;DHT22;11538;48.884;8.696;2023-12-22T13:35:38;9.20;99.90
22742;DHT22;11538;48.884;8.696;2023-12-22T13:38:09;9.20;99.90
22742;DHT22;11538;48.884;8.696;2023-12-22T13:40:38;9.20;99.90
22742;DHT22;11538;48.884;8.696;2023-12-22T13:43:06;9.20;99.90
22742;DHT22;11538;48.884;8.696;2023-12-22T13:45:35;9.30;99.90
22742;DHT22;11538;48.884;8.696;2023-12-22T13:48:02;9.20;99.90
22742;DHT22;11538;48.884;8.696;2023-12-22T13:50:30;9.30;99.90
22742;DHT22;11538;48.884;8.696;2023-12-22T13:53:07;9.30;99.90
22742;DHT22;11538;48.884;8.696;2023-12-22T13:55:35;9.30;99.90
22742;DHT22;11538;48.884;8.696;2023-12-22T13:58:04;9.30;99.90
22742;DHT22;11538;48.884;8.696;2023-12-22T14:00:31;9.30;99.90
22742;DHT22;11538;48.884;8.696;2023-12-22T14:03:01;9.30;99.90
22742;DHT22;11538;48.884;8.696;2023-12-22T14:05:28;9.30;99.90
22742;DHT22;11538;48.884;8.696;2023-12-22T14:08:01;9.30;99.90
22742;DHT22;11538;48.884;8.696;2023-12-22T14:10:31;9.40;99.90
22742;DHT22;11538;48.884;8.696;2023-12-22T14:12:58;9.40;99.90
22742;DHT22;11538;48.884;8.696;2023-12-22T14:15:27;9.40;99.90
22742;DHT22;11538;48.884;8.696;2023-12-22T14:18:13;9.40;99.90
22742;DHT22;11538;48.884;8.696;2023-12-22T14:20:43;9.40;99.90
22742;DHT22;11538;48.884;8.696;2023-12-22T14:23:10;9.40;99.90
22742;DHT22;11538;48.884;8.696;2023-12-22T14:25:40;9.50;99.90
22742;DHT22;11538;48.884;8.696;2023-12-22T14:28:07;9.50;99.90
22742;DHT22;11538;48.884;8.696;2023-12-22T14:30:47;9.50;99.90
22742;DHT22;11538;48.884;8.696;2023-12-22T14:33:15;9.50;99.90
22742;DHT22;11538;48.884;8.696;2023-12-22T14:35:47;9.50;99.90
22742;DHT22;11538;48.884;8.696;2023-12-22T14:38:14;9.50;99.90
22742;DHT22;11538;48.884;8.696;2023-12-22T14:40:43;9.50;99.90
22742;DHT22;11538;48.884;8.696;2023-12-22T14:43:16;9.60;99.90
22742;DHT22;11538;48.884;8.696;2023-12-22T14:45:43;9.50;99.90
22742;DHT22;11538;48.884;8.696;2023-12-22T14:48:10;9.60;99.90
22742;DHT22;11538;48.884;8.696;2023-12-22T14:50:37;9.60;99.90
22742;DHT22;11538;48.884;8.696;2023-12-22T14:53:04;9.60;99.90
22742;DHT22;11538;48.884;8.696;2023-12-22T14:55:37;9.60;99.90
22742;DHT22;11538;48.884;8.696;2023-12-22T14:58:04;9.50;99.90
22742;DHT22;11538;48.884;8.696;2023-12-22T15:00:33;9.60;99.90
22742;DHT22;11538;48.884;8.696;2023-12-22T15:03:05;9.50;99.90
22742;DHT22;11538;48.884;8.696;2023-12-22T15:05:35;9.60;99.90
22742;DHT22;11538;48.884;8.696;2023-12-22T15:08:04;9.60;99.90
22742;DHT22;11538;48.884;8.696;2023-12-22T15:10:33;9.60;99.90
22742;DHT22;11538;48.884;8.696;2023-12-22T15:13:02;9.60;99.90
22742;DHT22;11538;48.884;8.696;2023-12-22T15:15:36;9.60;99.90
22742;DHT22;11538;48.884;8.696;2023-12-22T15:18:03;9.60;99.90
22742;DHT22;11538;48.884;8.696;2023-12-22T15:20:39;9.60;99.90
22742;DHT22;11538;48.884;8.696;2023-12-22T15:23:06;9.60;99.90
22742;DHT22;11538;48.884;8.696;2023-12-22T15:25:33;9.60;99.90
22742;DHT22;11538;48.884;8.696;2023-12-22T15:28:01;9.60;99.90
22742;DHT22;11538;48.884;8.696;2023-12-22T15:30:29;9.60;99.90
22742;DHT22;11538;48.884;8.696;2023-12-22T15:32:57;9.60;99.90
22742;DHT22;11538;48.884;8.696;2023-12-22T15:35:31;9.60;99.90
22742;DHT22;11538;48.884;8.696;2023-12-22T15:38:02;9.60;99.90
22742;DHT22;11538;48.884;8.696;2023-12-22T15:40:29;9.60;99.90
22742;DHT22;11538;48.884;8.696;2023-12-22T15:42:56;9.70;99.90
22742;DHT22;11538;48.884;8.696;2023-12-22T15:45:23;9.70;99.90
22742;DHT22;11538;48.884;8.696;2023-12-22T15:47:49;9.70;99.90
22742;DHT22;11538;48.884;8.696;2023-12-22T15:50:16;9.70;99.90
22742;DHT22;11538;48.884;8.696;2023-12-22T15:52:43;9.70;99.90
22742;DHT22;11538;48.884;8.696;2023-12-22T15:55:10;9.70;99.90
22742;DHT22;11538;48.884;8.696;2023-12-22T15:57:41;9.70;99.90
22742;DHT22;11538;48.884;8.696;2023-12-22T16:00:08;9.70;99.90
22742;DHT22;11538;48.884;8.696;2023-12-22T16:02:36;9.70;99.90